createdAt,value
2023-05-03T00:02:26.038Z,100236.81
2023-05-03T00:04:54.748Z,100235.80
2023-05-03T00:07:23.181Z,100235.35
2023-05-03T00:09:50.501Z,100235.61
2023-05-03T00:12:17.878Z,100238.02
2023-05-03T00:14:46.167Z,100240.92
2023-05-03T00:17:13.531Z,100238.64
2023-05-03T00:19:40.844Z,100238.44
2023-05-03T00:22:09.092Z,100239.56
2023-05-03T00:24:36.294Z,100242.36
2023-05-03T00:27:04.635Z,100237.65
2023-05-03T00:29:31.738Z,100237.96
2023-05-03T00:32:00.350Z,100238.58
2023-05-03T00:34:27.887Z,100235.27
2023-05-03T00:36:54.948Z,100237.16
2023-05-03T00:39:22.264Z,100232.56
2023-05-03T00:41:49.502Z,100229.65
2023-05-03T00:44:16.618Z,100225.16
2023-05-03T00:46:44.337Z,100224.74
2023-05-03T00:49:11.666Z,100226.05
2023-05-03T00:51:39.694Z,100221.84
2023-05-03T00:54:06.992Z,100226.77
2023-05-03T00:56:47.820Z,100223.85
2023-05-03T00:59:15.407Z,100219.53
2023-05-03T01:01:43.306Z,100223.09
2023-05-03T01:04:10.581Z,100221.15
2023-05-03T01:07:04.277Z,100218.17
2023-05-03T01:09:37.832Z,100217.48
2023-05-03T01:12:25.364Z,100215.27
2023-05-03T01:14:58.630Z,100213.89
2023-05-03T01:17:28.822Z,100213.81
2023-05-03T01:19:58.232Z,100211.75
2023-05-03T01:22:38.674Z,100210.52
2023-05-03T01:25:09.615Z,100202.86
2023-05-03T01:27:37.149Z,100198.88
2023-05-03T01:30:06.145Z,100196.05
2023-05-03T01:32:46.146Z,100194.17
2023-05-03T01:35:20.440Z,100200.62
2023-05-03T01:37:48.393Z,100198.98
2023-05-03T01:40:17.100Z,100198.76
2023-05-03T01:42:44.477Z,100198.21
2023-05-03T01:45:11.816Z,100201.23
2023-05-03T01:47:39.200Z,100196.73
2023-05-03T01:50:06.511Z,100198.35
2023-05-03T01:52:33.687Z,100196.65
2023-05-03T01:55:01.047Z,100194.20
2023-05-03T01:57:28.228Z,100191.34
2023-05-03T01:59:55.679Z,100192.11
2023-05-03T02:02:22.823Z,100194.40
2023-05-03T02:04:50.237Z,100189.26
2023-05-03T02:07:17.675Z,100188.23
2023-05-03T02:09:46.186Z,100186.89
2023-05-03T02:12:13.364Z,100191.02
2023-05-03T02:14:41.284Z,100187.17
2023-05-03T02:17:10.574Z,100188.27
2023-05-03T02:19:38.278Z,100190.73
2023-05-03T02:22:07.471Z,100189.27
2023-05-03T02:24:36.429Z,100190.61
2023-05-03T02:27:07.254Z,100190.84
2023-05-03T02:29:34.457Z,100193.58
2023-05-03T02:32:02.057Z,100192.26
2023-05-03T02:34:29.885Z,100191.83
2023-05-03T02:36:56.919Z,100194.67
2023-05-03T02:39:23.935Z,100200.45
2023-05-03T02:41:51.143Z,100201.23
2023-05-03T02:44:18.346Z,100200.36
2023-05-03T02:49:30.302Z,100211.97
2023-05-03T02:51:57.782Z,100207.38
2023-05-03T02:54:24.779Z,100205.64
2023-05-03T02:56:51.828Z,100200.70
2023-05-03T02:59:18.910Z,100200.14
2023-05-03T03:01:46.617Z,100197.60
2023-05-03T03:04:15.304Z,100198.17
2023-05-03T03:06:42.496Z,100194.61
2023-05-03T03:09:09.521Z,100192.91
2023-05-03T03:11:36.505Z,100195.47
2023-05-03T03:14:03.500Z,100192.33
2023-05-03T03:16:31.144Z,100198.16
2023-05-03T03:18:58.164Z,100199.98
2023-05-03T03:21:28.593Z,100203.96
2023-05-03T03:23:56.064Z,100202.37
2023-05-03T03:26:23.182Z,100206.30
2023-05-03T03:28:50.817Z,100209.25
2023-05-03T03:31:18.542Z,100210.14
2023-05-03T03:33:45.845Z,100210.39
2023-05-03T03:36:14.760Z,100206.94
2023-05-03T03:38:42.243Z,100204.21
2023-05-03T03:41:09.501Z,100200.11
2023-05-03T03:43:37.092Z,100202.58
2023-05-03T03:46:05.128Z,100200.69
2023-05-03T03:48:33.464Z,100202.80
2023-05-03T03:51:00.386Z,100200.02
2023-05-03T03:53:31.786Z,100203.55
2023-05-03T03:55:59.889Z,100204.39
2023-05-03T03:58:26.941Z,100198.28
2023-05-03T04:00:55.066Z,100190.25
2023-05-03T04:03:22.952Z,100184.95
2023-05-03T04:05:50.640Z,100178.64
2023-05-03T04:08:18.469Z,100180.85
2023-05-03T04:10:45.793Z,100182.29
2023-05-03T04:13:13.152Z,100182.08
2023-05-03T04:15:40.329Z,100189.45
2023-05-03T04:18:08.287Z,100191.39
2023-05-03T04:20:37.247Z,100193.14
2023-05-03T04:23:04.862Z,100197.67
2023-05-03T04:25:33.065Z,100196.36
2023-05-03T04:28:08.204Z,100197.33
2023-05-03T04:30:35.969Z,100204.48
2023-05-03T04:33:03.987Z,100208.77
2023-05-03T04:35:33.676Z,100216.35
2023-05-03T04:38:03.703Z,100220.48
2023-05-03T04:40:31.413Z,100217.94
2023-05-03T04:43:05.115Z,100221.77
2023-05-03T04:45:34.706Z,100218.38
2023-05-03T04:48:04.807Z,100218.64
2023-05-03T04:50:32.973Z,100222.62
2023-05-03T04:53:00.177Z,100223.02
2023-05-03T04:55:27.664Z,100224.90
2023-05-03T04:57:55.275Z,100224.24
2023-05-03T05:00:23.097Z,100223.21
2023-05-03T05:02:54.771Z,100229.35
2023-05-03T05:05:21.854Z,100229.70
2023-05-03T05:07:48.722Z,100226.13
2023-05-03T05:10:16.756Z,100223.65
2023-05-03T05:12:44.048Z,100224.89
2023-05-03T05:15:11.328Z,100230.70
2023-05-03T05:17:39.378Z,100231.77
2023-05-03T05:20:12.006Z,100234.56
2023-05-03T05:22:40.339Z,100232.13
2023-05-03T05:25:07.649Z,100228.88
2023-05-03T05:27:35.853Z,100227.76
2023-05-03T05:30:04.184Z,100228.14
2023-05-03T05:32:32.950Z,100224.13
2023-05-03T05:35:00.642Z,100230.52
2023-05-03T05:37:28.064Z,100224.54
2023-05-03T05:39:57.555Z,100224.43
2023-05-03T05:42:26.614Z,100223.95
2023-05-03T05:44:53.951Z,100217.79
2023-05-03T05:47:21.924Z,100218.73
2023-05-03T05:49:50.140Z,100221.21
2023-05-03T05:52:17.247Z,100223.55
2023-05-03T05:54:44.219Z,100218.09
2023-05-03T05:57:12.449Z,100216.83
2023-05-03T05:59:40.266Z,100217.77
2023-05-03T06:02:10.227Z,100217.06
2023-05-03T06:04:37.830Z,100212.74
2023-05-03T06:07:04.790Z,100215.65
2023-05-03T06:09:31.828Z,100210.13
2023-05-03T06:12:03.075Z,100204.20
2023-05-03T06:14:31.941Z,100204.88
2023-05-03T06:17:00.119Z,100202.14
2023-05-03T06:19:26.967Z,100197.75
2023-05-03T06:21:54.089Z,100197.21
2023-05-03T06:24:21.686Z,100195.00
2023-05-03T06:26:52.790Z,100187.06
2023-05-03T06:29:20.336Z,100182.93
2023-05-03T06:31:47.483Z,100186.70
2023-05-03T06:34:19.882Z,100182.63
2023-05-03T06:36:48.545Z,100186.47
2023-05-03T06:39:16.239Z,100181.11
2023-05-03T06:41:44.138Z,100178.63
2023-05-03T06:44:10.950Z,100180.73
2023-05-03T06:46:38.704Z,100176.77
2023-05-03T06:49:06.090Z,100181.19
2023-05-03T06:51:33.683Z,100179.79
2023-05-03T06:54:06.533Z,100180.23
2023-05-03T06:56:33.804Z,100174.41
2023-05-03T06:59:00.938Z,100171.73
2023-05-03T07:01:27.794Z,100169.20
2023-05-03T07:03:55.451Z,100170.32
2023-05-03T07:06:23.762Z,100171.04
2023-05-03T07:08:51.941Z,100171.02
2023-05-03T07:11:23.264Z,100166.31
2023-05-03T07:13:51.113Z,100162.04
2023-05-03T07:16:21.393Z,100165.14
2023-05-03T07:18:48.679Z,100161.02
2023-05-03T07:21:15.587Z,100160.48
2023-05-03T07:23:43.845Z,100156.47
2023-05-03T07:26:11.100Z,100151.58
2023-05-03T07:28:38.095Z,100153.89
2023-05-03T07:31:05.248Z,100148.64
2023-05-03T07:33:36.960Z,100146.45
2023-05-03T07:36:04.980Z,100150.75
2023-05-03T07:38:33.445Z,100150.21
2023-05-03T07:41:00.854Z,100143.58
2023-05-03T07:43:28.789Z,100143.08
2023-05-03T07:45:55.654Z,100146.23
2023-05-03T07:48:23.149Z,100146.93
2023-05-03T07:50:50.072Z,100148.58
2023-05-03T07:53:17.091Z,100142.89
2023-05-03T07:55:44.223Z,100142.54
2023-05-03T07:58:11.239Z,100140.41
2023-05-03T08:00:38.416Z,100144.71
2023-05-03T08:03:06.125Z,100142.80
2023-05-03T08:05:35.988Z,100141.76
2023-05-03T08:08:06.562Z,100135.80
2023-05-03T08:10:37.344Z,100141.16
2023-05-03T08:13:05.774Z,100142.77
2023-05-03T08:15:33.286Z,100147.66
2023-05-03T08:18:00.597Z,100137.95
2023-05-03T08:20:27.586Z,100139.38
2023-05-03T08:22:58.825Z,100143.60
2023-05-03T08:25:27.823Z,100142.80
2023-05-03T08:27:55.077Z,100147.95
2023-05-03T08:30:22.556Z,100144.73
2023-05-03T08:32:49.740Z,100151.35
2023-05-03T08:35:16.780Z,100145.41
2023-05-03T08:37:44.805Z,100145.65
2023-05-03T08:40:13.470Z,100149.07
2023-05-03T08:42:44.315Z,100143.73
2023-05-03T08:45:13.720Z,100147.17
2023-05-03T08:47:41.222Z,100144.16
2023-05-03T08:50:09.601Z,100135.62
2023-05-03T08:52:39.606Z,100140.79
2023-05-03T08:55:07.151Z,100141.48
2023-05-03T08:57:35.330Z,100135.48
2023-05-03T09:00:05.732Z,100136.52
2023-05-03T09:02:34.412Z,100134.53
2023-05-03T09:05:01.501Z,100131.70
2023-05-03T09:07:29.057Z,100137.30
2023-05-03T09:09:57.669Z,100140.86
2023-05-03T09:12:40.564Z,100141.42
2023-05-03T09:15:08.405Z,100138.16
2023-05-03T09:17:35.668Z,100136.02
2023-05-03T09:20:03.521Z,100138.58
2023-05-03T09:22:31.921Z,100136.75
2023-05-03T09:25:00.446Z,100131.98
2023-05-03T09:27:27.532Z,100131.33
2023-05-03T09:29:54.389Z,100136.33
2023-05-03T09:32:22.376Z,100135.27
2023-05-03T09:34:49.360Z,100134.39
2023-05-03T09:37:16.258Z,100126.91
2023-05-03T09:39:45.049Z,100134.44
2023-05-03T09:42:15.898Z,100137.59
2023-05-03T09:44:43.777Z,100130.91
2023-05-03T09:47:10.634Z,100133.88
2023-05-03T09:49:37.827Z,100139.52
2023-05-03T09:52:06.038Z,100149.05
2023-05-03T09:54:34.861Z,100140.59
2023-05-03T09:57:04.190Z,100136.27
2023-05-03T09:59:35.663Z,100135.42
2023-05-03T10:02:04.292Z,100132.19
2023-05-03T10:04:39.287Z,100133.65
2023-05-03T10:07:10.647Z,100133.98
2023-05-03T10:09:39.744Z,100128.77
2023-05-03T10:12:11.275Z,100140.66
2023-05-03T10:14:42.881Z,100139.00
2023-05-03T10:17:35.379Z,100139.23
2023-05-03T10:20:20.821Z,100135.85
2023-05-03T10:23:05.911Z,100135.68
2023-05-03T10:25:34.901Z,100137.81
2023-05-03T10:28:05.684Z,100135.44
2023-05-03T10:30:37.214Z,100135.54
2023-05-03T10:33:13.210Z,100135.31
2023-05-03T10:35:41.569Z,100137.60
2023-05-03T10:38:14.573Z,100126.66
2023-05-03T10:40:42.761Z,100129.36
2023-05-03T10:43:31.491Z,100128.39
2023-05-03T10:46:05.697Z,100130.59
2023-05-03T10:48:33.662Z,100129.92
2023-05-03T10:51:32.497Z,100135.62
2023-05-03T10:53:59.342Z,100127.30
2023-05-03T10:56:26.289Z,100124.19
2023-05-03T10:58:58.186Z,100125.78
2023-05-03T11:01:25.413Z,100115.30
2023-05-03T11:03:52.908Z,100121.45
2023-05-03T11:06:33.954Z,100119.00
2023-05-03T11:09:06.273Z,100123.32
2023-05-03T11:11:38.774Z,100115.87
2023-05-03T11:14:06.099Z,100118.45
2023-05-03T11:16:36.089Z,100119.17
2023-05-03T11:19:03.406Z,100122.58
2023-05-03T11:21:30.903Z,100116.05
2023-05-03T11:23:58.398Z,100108.50
2023-05-03T11:26:25.652Z,100106.45
2023-05-03T11:28:53.433Z,100106.98
2023-05-03T11:31:23.688Z,100107.28
2023-05-03T11:33:51.267Z,100111.39
2023-05-03T11:36:18.134Z,100110.44
2023-05-03T11:38:45.248Z,100097.25
2023-05-03T11:41:21.184Z,100100.66
2023-05-03T11:43:55.017Z,100094.80
2023-05-03T11:46:29.009Z,100091.54
2023-05-03T11:48:56.346Z,100090.83
2023-05-03T11:51:23.453Z,100091.61
2023-05-03T11:53:51.150Z,100089.66
2023-05-03T11:56:19.775Z,100088.55
2023-05-03T11:58:55.660Z,100082.60
2023-05-03T12:01:26.951Z,100086.48
2023-05-03T12:03:58.536Z,100078.85
2023-05-03T12:06:27.680Z,100077.88
2023-05-03T12:08:56.058Z,100078.52
2023-05-03T12:11:25.767Z,100077.89
2023-05-03T12:14:00.461Z,100077.16
2023-05-03T12:16:28.066Z,100070.09
2023-05-03T12:19:03.442Z,100061.97
2023-05-03T12:21:59.394Z,100066.13
2023-05-03T12:24:34.898Z,100062.33
2023-05-03T12:27:03.232Z,100060.43
2023-05-03T12:29:32.965Z,100052.59
2023-05-03T12:32:02.650Z,100053.77
2023-05-03T12:34:34.843Z,100050.35
2023-05-03T12:37:06.072Z,100047.75
2023-05-03T12:39:34.068Z,100048.27
2023-05-03T12:42:07.146Z,100041.08
2023-05-03T12:44:36.201Z,100041.67
2023-05-03T12:47:03.571Z,100039.42
2023-05-03T12:49:31.521Z,100037.36
2023-05-03T12:52:21.935Z,100040.95
2023-05-03T12:54:49.085Z,100032.22
2023-05-03T12:57:17.493Z,100031.89
2023-05-03T12:59:53.176Z,100029.15
2023-05-03T13:04:58.807Z,100029.93
2023-05-03T13:07:29.630Z,100022.23
2023-05-03T13:12:27.855Z,100025.02
2023-05-03T13:14:55.281Z,100016.80
2023-05-03T13:17:22.140Z,100017.27
2023-05-03T13:19:49.490Z,100010.89
2023-05-03T13:22:16.712Z,100013.43
2023-05-03T13:24:44.407Z,100014.42
2023-05-03T13:27:11.415Z,100014.41
2023-05-03T13:29:38.858Z,100008.33
2023-05-03T13:32:05.935Z,100008.13
2023-05-03T13:34:33.518Z,100011.65
2023-05-03T13:37:05.968Z,100011.40
2023-05-03T13:39:32.890Z,100005.41
2023-05-03T13:42:00.169Z,100007.91
2023-05-03T13:44:27.202Z,100009.31
2023-05-03T13:46:55.089Z,100010.59
2023-05-03T13:49:22.054Z,100007.78
2023-05-03T13:51:49.123Z,100008.23
2023-05-03T13:54:16.293Z,100004.63
2023-05-03T13:56:43.463Z,100006.94
2023-05-03T13:59:12.031Z,100001.66
2023-05-03T14:01:39.164Z,100003.66
2023-05-03T14:04:06.371Z,100002.95
2023-05-03T14:06:33.929Z,100001.16
2023-05-03T14:09:02.042Z,100002.41
2023-05-03T14:11:29.870Z,100005.96
2023-05-03T14:13:58.492Z,100002.25
2023-05-03T14:18:56.361Z,100011.46
2023-05-03T14:21:23.109Z,100009.82
2023-05-03T14:23:50.562Z,100013.68
2023-05-03T14:26:17.694Z,100014.48
2023-05-03T14:28:44.788Z,100012.70
2023-05-03T14:31:12.630Z,100013.75
2023-05-03T14:33:39.346Z,100010.48
2023-05-03T14:36:07.921Z,100016.02
2023-05-03T14:38:36.658Z,100007.19
2023-05-03T14:41:03.831Z,100006.15
2023-05-03T14:43:31.317Z,100007.27
2023-05-03T14:45:58.225Z,100008.00
2023-05-03T14:48:25.640Z,100012.67
2023-05-03T14:50:53.750Z,100013.05
2023-05-03T14:53:21.359Z,100013.41
2023-05-03T14:55:48.236Z,100011.90
2023-05-03T14:58:15.847Z,100009.33
2023-05-03T15:00:43.666Z,100011.28
2023-05-03T15:05:36.838Z,100012.45
2023-05-03T15:08:04.284Z,100009.88
2023-05-03T15:10:31.406Z,100008.45
2023-05-03T15:12:58.578Z,100015.38
2023-05-03T15:15:25.812Z,100016.61
2023-05-03T15:17:52.985Z,100016.52
2023-05-03T15:20:20.740Z,100016.31
2023-05-03T15:22:47.710Z,100021.51
2023-05-03T15:25:17.467Z,100019.45
2023-05-03T15:27:44.544Z,100018.52
2023-05-03T15:30:12.399Z,100019.52
2023-05-03T15:32:39.532Z,100017.38
2023-05-03T15:35:07.252Z,100020.11
2023-05-03T15:37:38.204Z,100018.28
2023-05-03T15:40:06.312Z,100024.48
2023-05-03T15:42:33.776Z,100025.36
2023-05-03T15:45:01.032Z,100028.34
2023-05-03T15:47:28.181Z,100028.77
2023-05-03T15:49:57.661Z,100033.09
2023-05-03T15:52:25.050Z,100030.46
2023-05-03T15:54:52.097Z,100032.94
2023-05-03T15:57:19.347Z,100031.64
2023-05-03T15:59:46.651Z,100031.15
2023-05-03T16:02:13.972Z,100027.69
2023-05-03T16:04:41.267Z,100029.75
2023-05-03T16:07:08.932Z,100031.77
2023-05-03T16:09:36.906Z,100030.59
2023-05-03T16:12:04.437Z,100030.62
2023-05-03T16:14:31.568Z,100032.98
2023-05-03T16:17:00.387Z,100032.63
2023-05-03T16:19:27.563Z,100037.95
2023-05-03T16:21:54.668Z,100035.67
2023-05-03T16:24:21.742Z,100041.88
2023-05-03T16:26:49.429Z,100042.45
2023-05-03T16:29:17.604Z,100041.67
2023-05-03T16:31:46.610Z,100045.79
2023-05-03T16:34:14.383Z,100045.81
2023-05-03T16:36:45.388Z,100046.42
2023-05-03T16:39:12.798Z,100051.45
2023-05-03T16:41:40.686Z,100051.84
2023-05-03T16:44:08.728Z,100051.67
2023-05-03T16:46:36.793Z,100056.89
2023-05-03T16:49:04.754Z,100061.78
2023-05-03T16:51:32.546Z,100059.45
2023-05-03T16:54:01.647Z,100059.55
2023-05-03T16:56:30.953Z,100058.66
2023-05-03T16:58:59.326Z,100061.41
2023-05-03T17:01:26.550Z,100063.48
2023-05-03T17:03:53.778Z,100059.88
2023-05-03T17:06:21.174Z,100063.75
2023-05-03T17:08:48.241Z,100066.58
2023-05-03T17:11:16.356Z,100066.85
2023-05-03T17:13:43.781Z,100069.35
2023-05-03T17:16:15.274Z,100067.16
2023-05-03T17:18:42.941Z,100069.39
2023-05-03T17:21:10.996Z,100073.67
2023-05-03T17:23:39.598Z,100071.85
2023-05-03T17:26:11.296Z,100074.34
2023-05-03T17:28:38.653Z,100074.47
2023-05-03T17:31:09.331Z,100077.69
2023-05-03T17:33:36.595Z,100075.28
2023-05-03T17:36:07.003Z,100078.20
2023-05-03T17:38:34.237Z,100076.68
2023-05-03T17:41:08.747Z,100073.52
2023-05-03T17:43:36.793Z,100076.83
2023-05-03T17:46:11.785Z,100080.84
2023-05-03T17:48:40.843Z,100082.46
2023-05-03T17:51:08.050Z,100089.40
2023-05-03T17:53:35.297Z,100093.94
2023-05-03T17:56:02.637Z,100094.27
2023-05-03T17:58:29.761Z,100099.73
2023-05-03T18:00:57.786Z,100101.98
2023-05-03T18:03:26.042Z,100103.21
2023-05-03T18:05:53.251Z,100104.09
2023-05-03T18:08:20.885Z,100102.51
2023-05-03T18:10:48.397Z,100106.12
2023-05-03T18:13:15.625Z,100104.69
2023-05-03T18:15:44.035Z,100105.91
2023-05-03T18:18:11.689Z,100109.48
2023-05-03T18:20:39.637Z,100106.98
2023-05-03T18:23:06.854Z,100109.02
2023-05-03T18:25:34.367Z,100113.20
2023-05-03T18:28:02.220Z,100112.98
2023-05-03T18:30:29.652Z,100117.77
2023-05-03T18:32:56.915Z,100116.34
2023-05-03T18:35:24.102Z,100117.79
2023-05-03T18:37:53.310Z,100119.23
2023-05-03T18:40:20.444Z,100124.48
2023-05-03T18:42:47.591Z,100125.18
2023-05-03T18:45:15.455Z,100128.77
2023-05-03T18:47:42.786Z,100129.22
2023-05-03T18:50:10.383Z,100134.30
2023-05-03T18:52:37.995Z,100137.61
2023-05-03T18:55:08.849Z,100135.70
2023-05-03T18:57:35.915Z,100142.58
2023-05-03T19:00:06.643Z,100144.89
2023-05-03T19:02:33.949Z,100149.37
2023-05-03T19:05:01.462Z,100154.76
2023-05-03T19:07:28.717Z,100157.22
2023-05-03T19:09:56.579Z,100160.69
2023-05-03T19:12:23.850Z,100163.41
2023-05-03T19:14:51.052Z,100163.75
2023-05-03T19:17:18.405Z,100176.02
2023-05-03T19:19:45.762Z,100177.71
2023-05-03T19:22:13.139Z,100175.64
2023-05-03T19:24:43.948Z,100174.42
2023-05-03T19:27:11.983Z,100175.41
2023-05-03T19:29:39.210Z,100177.83
2023-05-03T19:32:06.394Z,100179.04
2023-05-03T19:34:36.536Z,100187.05
2023-05-03T19:37:03.782Z,100191.67
2023-05-03T19:39:33.282Z,100193.02
2023-05-03T19:42:00.526Z,100195.71
2023-05-03T19:44:30.999Z,100201.35
2023-05-03T19:46:58.306Z,100202.67
2023-05-03T19:49:25.900Z,100201.77
2023-05-03T19:51:54.193Z,100201.54
2023-05-03T19:54:21.452Z,100199.31
2023-05-03T19:56:49.039Z,100197.68
2023-05-03T19:59:16.421Z,100202.37
2023-05-03T20:01:45.361Z,100204.14
2023-05-03T20:04:12.704Z,100211.38
2023-05-03T20:06:39.874Z,100214.56
2023-05-03T20:09:07.087Z,100217.22
2023-05-03T20:11:34.254Z,100222.06
2023-05-03T20:14:01.440Z,100225.89
2023-05-03T20:16:32.931Z,100223.80
2023-05-03T20:19:00.196Z,100230.59
2023-05-03T20:21:27.652Z,100230.16
2023-05-03T20:23:54.735Z,100230.61
2023-05-03T20:26:22.115Z,100225.17
2023-05-03T20:28:49.572Z,100221.59
2023-05-03T20:31:17.625Z,100230.36
2023-05-03T20:33:44.621Z,100230.49
2023-05-03T20:36:13.539Z,100228.68
2023-05-03T20:38:40.842Z,100228.70
2023-05-03T20:41:08.097Z,100239.41
2023-05-03T20:43:35.223Z,100235.55
2023-05-03T20:46:02.386Z,100242.56
2023-05-03T20:48:29.645Z,100242.91
2023-05-03T20:50:59.109Z,100243.57
2023-05-03T20:53:26.394Z,100243.80
2023-05-03T20:55:57.109Z,100240.56
2023-05-03T20:58:24.480Z,100240.88
2023-05-03T21:00:53.374Z,100248.77
2023-05-03T21:03:23.784Z,100248.79
2023-05-03T21:05:53.158Z,100254.69
2023-05-03T21:08:20.242Z,100254.58
2023-05-03T21:10:47.437Z,100255.04
2023-05-03T21:13:14.882Z,100259.41
2023-05-03T21:15:42.802Z,100258.34
2023-05-03T21:18:10.338Z,100259.30
2023-05-03T21:20:37.820Z,100260.02
2023-05-03T21:23:05.251Z,100260.41
2023-05-03T21:25:32.354Z,100266.61
2023-05-03T21:27:59.524Z,100269.50
2023-05-03T21:30:27.955Z,100271.67
2023-05-03T21:32:55.002Z,100270.55
2023-05-03T21:35:22.198Z,100275.09
2023-05-03T21:37:50.079Z,100278.01
2023-05-03T21:40:17.649Z,100281.57
2023-05-03T21:42:44.967Z,100282.32
2023-05-03T21:45:12.607Z,100281.05
2023-05-03T21:47:39.777Z,100277.64
2023-05-03T21:50:08.056Z,100279.23
2023-05-03T21:52:36.633Z,100272.39
2023-05-03T21:55:04.242Z,100277.55
2023-05-03T21:57:33.016Z,100272.77
2023-05-03T22:00:00.304Z,100270.58
2023-05-03T22:02:27.739Z,100264.65
2023-05-03T22:04:55.178Z,100265.70
2023-05-03T22:07:22.686Z,100265.98
2023-05-03T22:09:49.828Z,100265.39
2023-05-03T22:14:47.629Z,100263.34
2023-05-03T22:17:14.777Z,100262.21
2023-05-03T22:19:42.395Z,100264.70
2023-05-03T22:22:09.542Z,100265.10
2023-05-03T22:24:36.575Z,100265.61
2023-05-03T22:27:03.975Z,100263.25
2023-05-03T22:29:31.226Z,100262.75
2023-05-03T22:31:59.350Z,100260.48
2023-05-03T22:34:26.870Z,100261.97
2023-05-03T22:36:54.142Z,100268.46
2023-05-03T22:39:21.198Z,100265.48
2023-05-03T22:41:48.477Z,100265.51
2023-05-03T22:44:15.935Z,100265.39
2023-05-03T22:46:43.017Z,100265.08
2023-05-03T22:49:10.112Z,100265.26
2023-05-03T22:51:37.340Z,100264.99
2023-05-03T22:59:25.374Z,100264.31
2023-05-03T23:01:52.503Z,100261.61
2023-05-03T23:04:19.584Z,100263.60
2023-05-03T23:06:46.977Z,100261.48
2023-05-03T23:09:14.032Z,100261.80
2023-05-03T23:11:41.365Z,100257.52
2023-05-03T23:14:08.595Z,100253.06
2023-05-03T23:16:35.666Z,100250.23
2023-05-03T23:19:03.896Z,100245.77
2023-05-03T23:21:32.502Z,100244.74
2023-05-03T23:23:59.711Z,100242.66
2023-05-03T23:26:28.185Z,100247.21
2023-05-03T23:28:55.866Z,100246.61
2023-05-03T23:31:23.640Z,100245.77
2023-05-03T23:33:51.279Z,100247.27
2023-05-03T23:36:18.727Z,100243.94
2023-05-03T23:38:46.159Z,100245.17
2023-05-03T23:41:13.310Z,100241.15
2023-05-03T23:43:40.381Z,100238.41
2023-05-03T23:46:07.709Z,100237.23
2023-05-03T23:48:35.125Z,100233.64
2023-05-03T23:51:02.252Z,100238.16
2023-05-03T23:53:29.406Z,100236.55
2023-05-03T23:55:56.558Z,100235.04
2023-05-03T23:58:23.887Z,100232.02
